Sao Felix de Balsas, Brazil
Current Conditions -  °F | °C
As of 12:00 PM on Friday 28 Nov 2014 (Local Time) from SBTE Reporting Station
Scattered Clouds Scattered Clouds  
Wind Chill: 93°   Ceiling: Unl
Heat Index: 96°   Visibility: 6mi
Dew Point: 66°   Wind: 8mph
Humidity: 41%   Direction: 140°SE
Pressure: 29.83"   Gusts: NA
Location:  7.13°S, 44.87°W
Report Text: SBTE 281500Z 14007KT 9999 SCT030 34/19 Q1010
Loading
Personal Weather Stations






























Interactive Weather Map New forecast layout! Learn more

10-Day Weather Forecast

Advertisements
Track Severe Weather on mobile